Due to severe server failure at the provider, not all demo sites are operational. Will take some days to rebuilt everything.

Demonstration site - Click on the  for more information

This is an optional block. Switch it on/off in your settings-file: $SITE['bannerTop'] = false; or $SITE['bannerBottom'] = false;

You can display ads, any other important text or photo’s using text / html or PHP code.

You can place one or more at the top and or bottom and it can all be different for content / size .



Visit our other weather sites:

Template documentation
and downloads

And another site



Nearby METAR Reports

   
EBAW - Antwerp
Updated: 18-10-2018 07:20
Mist, Few Clouds  
Mist, Few Clouds  
   Wind: varies 3.7 km/h
Wind: varies 3.7 km/h
Temperature: 11°C
Dew Point: 9°C
Humidity: 88%
Barometer: 1023 hPa
Clouds: Few Clouds
Visibility: 5 km
Cloud details: Few Clouds 3500 ft
EBAW 180520Z VRB02KT 5000 BR FEW035 11/09 Q1023 NOSIG
EBLG - Liège
Updated: 18-10-2018 07:20
Mostly Cloudy  
Mostly Cloudy  
   Wind: North 9.3 km/h
Wind: North 9.3 km/h
Temperature: 13°C
Dew Point: 12°C
Humidity: 94%
Barometer: 1022 hPa
Clouds: Mostly Cloudy
Visibility: 6 km
Cloud details: Mostly Cloudy 2000 ft
EBLG 180520Z 01005KT 6000 BKN020 13/12 Q1022 NOSIG
EBCV - Mons/Bergen
Updated: 18-10-2018 07:25
Mist, Clear  
Mist, Clear  
   Wind: NNE 7.4 km/h
Wind: NNE 7.4 km/h
Temperature: 9°C
Wind Chill: 8°C
Dew Point: 9°C
Humidity: 100%
Barometer: 1023 hPa
Clouds: Clear
Visibility: 2 km
Cloud details: Clear ft
EBCV 180525Z AUTO 02004KT 1900 BR NCD 09/09 Q1023 YLO
EHBK - Maastricht
Updated: 18-10-2018 07:25
Overcast  
Overcast  
   Wind: NNE 14.8 km/h
Wind: NNE 14.8 km/h
Temperature: 13°C
Dew Point: 12°C
Humidity: 94%
Barometer: 1022 hPa
Clouds: Overcast
Visibility: 7 km
Cloud details: Few Clouds 900 ft,
Overcast 2100 ft
EHBK 180525Z AUTO 03008KT 7000 FEW009 OVC021 13/12 Q1022 TEMPO 4000 BR
ELLX - Luxemburg
Updated: 18-10-2018 07:20
Mist, Partly Cloudy  
Mist, Partly Cloudy  
   Wind: North 20.4 km/h
Wind: North 20.4 km/h
Temperature: 12°C
Dew Point: 10°C
Humidity: 88%
Barometer: 1020 hPa
Clouds: Partly Cloudy
Visibility: 3 km
Cloud details: Partly Cloudy ft
ELLX 180520Z 01011KT 350V050 2500 BR NSC 12/10 Q1020 NOSIG
EBOS - Oostende
Updated: 18-10-2018 07:20
Mostly Cloudy  
Mostly Cloudy  
   Wind: NE 22.2 km/h
Wind: NE 22.2 km/h
Temperature: 14°C
Dew Point: 12°C
Humidity: 88%
Barometer: 1024 hPa
Clouds: Mostly Cloudy
Visibility: More than 10 km
Cloud details: Mostly Cloudy 800 ft,
Mostly Cloudy 1800 ft
EBOS 180520Z 05012KT 9999 BKN008 BKN018 14/12 Q1024 TEMPO 3500 -DZ

Script developed by  Saratoga-weather.org Adapted for the template by  Weerstation Leuven

This is an optional block. Switch it on/off in your settings-file: $SITE['bannerTop'] = false; or $SITE['bannerBottom'] = false;

You can display ads, any other important text or photo’s using text / html or PHP code.

You can place one or more at the top and or bottom and it can all be different for content / size .